createdAt,value
2022-10-29T00:01:06.640Z,84.12
2022-10-29T00:03:33.143Z,83.79
2022-10-29T00:06:09.782Z,83.45
2022-10-29T00:08:39.998Z,83.60
2022-10-29T00:11:08.260Z,83.33
2022-10-29T00:13:35.577Z,83.85
2022-10-29T00:16:11.004Z,83.66
2022-10-29T00:18:37.682Z,83.13
2022-10-29T00:21:07.272Z,83.42
2022-10-29T00:23:34.040Z,83.48
2022-10-29T00:26:01.204Z,83.17
2022-10-29T00:28:28.408Z,84.38
2022-10-29T00:30:57.999Z,84.68
2022-10-29T00:33:24.624Z,84.05
2022-10-29T00:35:55.109Z,84.24
2022-10-29T00:38:21.559Z,86.61
2022-10-29T00:40:48.078Z,85.97
2022-10-29T00:43:16.328Z,86.79
2022-10-29T00:45:57.449Z,87.01
2022-10-29T00:48:27.384Z,86.60
2022-10-29T00:50:55.080Z,86.42
2022-10-29T00:53:26.970Z,86.74
2022-10-29T00:55:53.416Z,86.17
2022-10-29T00:58:21.692Z,87.23
2022-10-29T01:00:48.191Z,86.40
2022-10-29T01:03:14.680Z,87.95
2022-10-29T01:05:41.729Z,87.34
2022-10-29T01:08:08.262Z,86.83
2022-10-29T01:10:59.846Z,87.11
2022-10-29T01:13:33.281Z,86.50
2022-10-29T01:16:30.808Z,86.59
2022-10-29T01:19:27.150Z,88.00
2022-10-29T01:22:06.785Z,87.62
2022-10-29T01:24:42.192Z,87.37
2022-10-29T01:27:39.724Z,87.71
2022-10-29T01:30:12.173Z,90.12
2022-10-29T01:33:00.362Z,90.52
2022-10-29T01:35:48.148Z,90.18
2022-10-29T01:38:25.084Z,94.76
2022-10-29T01:40:58.589Z,94.76
2022-10-29T01:43:33.516Z,93.09
2022-10-29T01:46:23.594Z,93.38
2022-10-29T01:48:57.474Z,93.30
2022-10-29T01:51:28.574Z,95.45
2022-10-29T01:53:57.053Z,96.36
2022-10-29T01:56:23.499Z,95.78
2022-10-29T01:58:53.596Z,95.04
2022-10-29T02:01:57.009Z,95.30
2022-10-29T02:04:52.380Z,96.57
2022-10-29T02:07:42.557Z,96.70
2022-10-29T02:10:52.629Z,97.14
2022-10-29T02:15:52.839Z,98.45
2022-10-29T02:18:24.533Z,98.23
2022-10-29T02:20:51.209Z,97.57
2022-10-29T02:23:17.814Z,98.41
2022-10-29T02:25:44.557Z,98.36
2022-10-29T02:28:11.013Z,98.38
2022-10-29T02:30:37.516Z,100.00
2022-10-29T02:33:04.251Z,99.42
2022-10-29T02:35:30.684Z,98.88
2022-10-29T02:37:57.082Z,97.73
2022-10-29T02:40:23.566Z,97.48
2022-10-29T02:42:49.985Z,98.80
2022-10-29T02:45:16.432Z,97.84
2022-10-29T02:47:42.997Z,99.17
2022-10-29T02:50:09.694Z,98.17
2022-10-29T02:52:36.137Z,99.59
2022-10-29T02:55:03.008Z,99.15
2022-10-29T02:57:29.452Z,98.96
2022-10-29T02:59:57.587Z,99.06
2022-10-29T03:02:24.256Z,99.21
2022-10-29T03:04:50.727Z,100.00
2022-10-29T03:07:17.152Z,100.00
2022-10-29T03:09:43.579Z,99.61
2022-10-29T03:12:09.996Z,100.00
2022-10-29T03:14:36.417Z,99.37
2022-10-29T03:17:03.045Z,99.52
2022-10-29T03:19:29.491Z,100.00
2022-10-29T03:21:55.932Z,99.58
2022-10-29T03:24:22.348Z,99.46
2022-10-29T03:26:48.750Z,100.00
2022-10-29T03:29:15.222Z,100.00
2022-10-29T03:31:41.648Z,100.00
2022-10-29T03:34:08.096Z,100.00
2022-10-29T03:36:34.531Z,99.58
2022-10-29T03:39:00.962Z,100.00
2022-10-29T03:41:27.454Z,99.45
2022-10-29T03:46:20.542Z,99.68
2022-10-29T03:48:50.267Z,100.00
2022-10-29T03:51:16.759Z,100.00
2022-10-29T03:53:43.158Z,100.00
2022-10-29T03:56:10.206Z,100.00
2022-10-29T03:58:36.720Z,99.55
2022-10-29T04:01:05.851Z,99.13
2022-10-29T04:03:33.890Z,97.96
2022-10-29T04:06:02.816Z,99.36
2022-10-29T04:08:29.628Z,97.57
2022-10-29T04:10:56.027Z,98.52
2022-10-29T04:13:22.456Z,98.78
2022-10-29T04:15:48.903Z,99.97
2022-10-29T04:18:15.451Z,100.00
2022-10-29T04:21:31.318Z,100.00
2022-10-29T04:29:02.093Z,100.00
2022-10-29T04:31:28.604Z,100.00
2022-10-29T04:33:55.374Z,100.00
2022-10-29T04:36:21.891Z,100.00
2022-10-29T04:38:49.816Z,100.00
2022-10-29T04:41:16.261Z,100.00
2022-10-29T04:43:42.749Z,100.00
2022-10-29T04:46:10.609Z,100.00
2022-10-29T04:48:37.142Z,100.00
2022-10-29T04:51:03.857Z,100.00
2022-10-29T04:53:30.759Z,100.00
2022-10-29T04:56:01.875Z,100.00
2022-10-29T04:58:28.355Z,100.00
2022-10-29T05:01:01.171Z,100.00
2022-10-29T05:03:27.751Z,100.00
2022-10-29T05:05:54.231Z,100.00
2022-10-29T05:08:21.654Z,100.00
2022-10-29T05:10:48.315Z,100.00
2022-10-29T05:13:14.840Z,100.00
2022-10-29T05:15:41.876Z,100.00
2022-10-29T05:18:09.903Z,100.00
2022-10-29T05:20:36.471Z,100.00
2022-10-29T05:23:07.953Z,100.00
2022-10-29T05:25:37.487Z,100.00
2022-10-29T05:28:05.948Z,100.00
2022-10-29T05:30:33.301Z,100.00
2022-10-29T05:33:00.029Z,100.00
2022-10-29T05:35:26.806Z,100.00
2022-10-29T05:37:54.324Z,100.00
2022-10-29T05:40:21.640Z,100.00
2022-10-29T05:42:51.613Z,100.00
2022-10-29T05:45:18.272Z,100.00
2022-10-29T05:47:47.414Z,100.00
2022-10-29T05:50:14.272Z,100.00
2022-10-29T05:52:40.984Z,100.00
2022-10-29T05:55:07.928Z,100.00
2022-10-29T05:57:34.409Z,100.00
2022-10-29T06:00:00.874Z,100.00
2022-10-29T06:02:27.436Z,100.00
2022-10-29T06:04:53.964Z,100.00
2022-10-29T06:07:20.419Z,100.00
2022-10-29T06:09:47.157Z,100.00
2022-10-29T06:12:13.779Z,100.00
2022-10-29T06:14:40.304Z,100.00
2022-10-29T06:17:06.726Z,100.00
2022-10-29T06:19:33.229Z,100.00
2022-10-29T06:22:00.624Z,100.00
2022-10-29T06:24:27.503Z,100.00
2022-10-29T06:26:54.569Z,100.00
2022-10-29T06:29:20.997Z,100.00
2022-10-29T06:31:47.455Z,100.00
2022-10-29T06:34:14.734Z,100.00
2022-10-29T06:36:44.293Z,100.00
2022-10-29T06:39:10.855Z,100.00
2022-10-29T06:42:04.301Z,100.00
2022-10-29T06:44:31.026Z,100.00
2022-10-29T06:47:15.047Z,100.00
2022-10-29T06:49:47.467Z,100.00
2022-10-29T06:52:14.089Z,100.00
2022-10-29T06:54:40.551Z,100.00
2022-10-29T06:57:07.029Z,100.00
2022-10-29T06:59:33.470Z,100.00
2022-10-29T07:02:00.140Z,100.00
2022-10-29T07:04:26.612Z,100.00
2022-10-29T07:06:53.030Z,100.00
2022-10-29T07:09:19.501Z,100.00
2022-10-29T07:11:45.896Z,100.00
2022-10-29T07:14:12.304Z,100.00
2022-10-29T07:16:38.755Z,100.00
2022-10-29T07:19:05.888Z,100.00
2022-10-29T07:21:32.369Z,100.00
2022-10-29T07:23:59.038Z,100.00
2022-10-29T07:26:25.707Z,100.00
2022-10-29T07:28:57.036Z,100.00
2022-10-29T07:31:24.056Z,100.00
2022-10-29T07:33:50.680Z,100.00
2022-10-29T07:36:20.224Z,100.00
2022-10-29T07:38:46.968Z,100.00
2022-10-29T07:41:13.455Z,100.00
2022-10-29T07:43:40.090Z,100.00
2022-10-29T07:46:06.931Z,100.00
2022-10-29T08:41:58.309Z,95.77
2022-10-29T08:52:10.211Z,95.79
2022-10-29T08:54:41.138Z,92.71
2022-10-29T08:57:18.030Z,93.00
2022-10-29T09:00:10.864Z,93.87
2022-10-29T09:02:37.626Z,93.44
2022-10-29T09:05:14.763Z,92.64
2022-10-29T09:08:43.632Z,92.58
2022-10-29T09:11:52.006Z,92.11
2022-10-29T09:14:59.502Z,93.18
2022-10-29T09:17:53.896Z,91.93
2022-10-29T09:20:36.831Z,91.37
2022-10-29T09:23:21.840Z,93.37
2022-10-29T09:26:02.856Z,90.97
2022-10-29T09:28:51.599Z,88.91
2022-10-29T09:31:34.545Z,88.30
2022-10-29T09:34:12.561Z,89.90
2022-10-29T09:36:40.196Z,88.66
2022-10-29T09:39:24.467Z,89.24
2022-10-29T09:41:59.040Z,88.65
2022-10-29T09:44:46.414Z,87.66
2022-10-29T09:47:40.878Z,87.85
2022-10-29T09:50:20.230Z,88.33
2022-10-29T09:53:14.295Z,88.88
2022-10-29T09:55:53.877Z,89.82
2022-10-29T10:14:05.591Z,87.62
2022-10-29T10:16:33.750Z,85.89
2022-10-29T10:22:47.597Z,85.66
2022-10-29T10:25:35.949Z,84.09
2022-10-29T10:31:53.632Z,83.24
2022-10-29T10:34:36.448Z,82.97
2022-10-29T10:41:02.401Z,82.03
2022-10-29T10:43:32.233Z,81.47
2022-10-29T10:54:12.315Z,81.35
2022-10-29T11:00:21.961Z,81.14
2022-10-29T11:03:02.049Z,81.30
2022-10-29T11:06:44.320Z,80.63
2022-10-29T11:17:29.978Z,80.58
2022-10-29T11:24:18.245Z,80.47
2022-10-29T11:30:47.781Z,78.32
2022-10-29T11:37:15.266Z,79.55
2022-10-29T11:39:49.561Z,79.78
2022-10-29T11:46:13.312Z,78.52
2022-10-29T11:52:37.488Z,81.24
2022-10-29T11:55:30.439Z,80.97
2022-10-29T12:01:52.153Z,80.89
2022-10-29T12:08:24.002Z,80.50
2022-10-29T12:14:48.977Z,79.34
2022-10-29T12:24:54.354Z,78.54
2022-10-29T12:28:05.402Z,79.69
2022-10-29T12:34:31.626Z,78.66
2022-10-29T12:41:12.647Z,76.37
2022-10-29T12:47:55.323Z,76.85
2022-10-29T12:50:59.313Z,76.39
2022-10-29T12:57:15.103Z,77.29
2022-10-29T12:59:43.457Z,75.00
2022-10-29T13:06:42.876Z,74.33
2022-10-29T13:13:13.672Z,76.53
2022-10-29T13:15:49.259Z,76.29
2022-10-29T13:26:44.008Z,74.78
2022-10-29T13:29:10.401Z,74.57
2022-10-29T13:35:21.339Z,72.92
2022-10-29T13:41:44.655Z,77.43
2022-10-29T13:48:05.435Z,77.29
2022-10-29T13:54:31.119Z,78.24
2022-10-29T14:11:42.781Z,79.81
2022-10-29T14:14:35.449Z,78.79
2022-10-29T14:17:18.302Z,77.21
2022-10-29T14:24:02.956Z,81.57
2022-10-29T14:30:17.323Z,82.16
2022-10-29T14:33:38.474Z,82.15
2022-10-29T14:47:33.307Z,90.45
2022-10-29T14:50:06.473Z,89.39
2022-10-29T14:52:53.599Z,88.24
2022-10-29T14:59:35.941Z,86.77
2022-10-29T15:02:36.196Z,89.22
2022-10-29T15:11:59.595Z,92.13
2022-10-29T15:38:27.660Z,95.40
2022-10-29T16:15:23.543Z,99.62
2022-10-29T16:55:40.667Z,99.04
2022-10-29T16:58:13.968Z,98.89
2022-10-29T17:00:40.803Z,98.33
2022-10-29T17:03:11.512Z,100.00
2022-10-29T17:07:07.305Z,99.42
2022-10-29T17:17:48.289Z,100.00
2022-10-29T17:23:32.124Z,99.96
2022-10-29T17:26:01.720Z,100.00
2022-10-29T17:28:48.149Z,99.52
2022-10-29T17:31:28.616Z,100.00
2022-10-29T17:34:15.166Z,100.00
2022-10-29T17:36:51.550Z,100.00
2022-10-29T17:39:31.891Z,100.00
2022-10-29T17:41:58.765Z,100.00
2022-10-29T17:44:28.425Z,100.00
2022-10-29T17:47:31.301Z,100.00
2022-10-29T17:50:19.432Z,100.00
2022-10-29T17:53:01.921Z,100.00
2022-10-29T17:55:31.167Z,100.00
2022-10-29T17:58:16.951Z,100.00
2022-10-29T18:04:09.786Z,100.00
2022-10-29T18:07:02.334Z,100.00
2022-10-29T18:10:34.452Z,100.00
2022-10-29T18:13:42.389Z,99.59
2022-10-29T18:16:30.363Z,99.93
2022-10-29T18:19:07.158Z,100.00
2022-10-29T18:22:00.660Z,100.00
2022-10-29T18:24:46.053Z,100.00
2022-10-29T18:27:18.220Z,99.42
2022-10-29T18:29:50.859Z,99.40
2022-10-29T18:32:21.107Z,99.83
2022-10-29T18:34:51.363Z,99.73
2022-10-29T18:42:02.392Z,100.00
2022-10-29T18:44:28.965Z,100.00
2022-10-29T18:48:08.708Z,100.00
2022-10-29T18:51:16.180Z,100.00
2022-10-29T20:18:07.122Z,100.00
2022-10-29T20:20:47.049Z,100.00
2022-10-29T20:23:19.790Z,100.00
2022-10-29T20:26:06.135Z,100.00
2022-10-29T20:28:44.566Z,100.00
2022-10-29T20:31:26.952Z,100.00
2022-10-29T20:34:15.765Z,100.00
2022-10-29T20:37:26.908Z,100.00
2022-10-29T20:40:24.850Z,100.00
2022-10-29T20:43:08.484Z,100.00
2022-10-29T20:45:37.303Z,100.00
2022-10-29T20:48:04.014Z,100.00
2022-10-29T20:50:35.970Z,100.00
2022-10-29T20:59:21.101Z,100.00
2022-10-29T21:05:23.485Z,100.00
2022-10-29T21:07:56.091Z,100.00
2022-10-29T21:10:29.305Z,100.00
2022-10-29T21:13:00.439Z,100.00
2022-10-29T21:15:28.055Z,100.00
2022-10-29T21:25:32.645Z,100.00
2022-10-29T21:29:07.986Z,100.00
2022-10-29T21:39:22.907Z,100.00
2022-10-29T21:42:00.274Z,100.00
2022-10-29T21:44:38.864Z,100.00
2022-10-29T21:47:10.294Z,100.00
2022-10-29T21:49:36.880Z,100.00
2022-10-29T21:52:03.505Z,100.00
2022-10-29T21:54:30.052Z,100.00
2022-10-29T21:56:56.588Z,100.00
2022-10-29T21:59:23.061Z,100.00
2022-10-29T22:01:49.871Z,100.00
2022-10-29T22:04:32.437Z,100.00
2022-10-29T22:07:03.875Z,100.00
2022-10-29T22:12:24.966Z,100.00
2022-10-29T22:14:58.083Z,100.00
2022-10-29T22:17:27.004Z,100.00
2022-10-29T22:19:53.527Z,100.00
2022-10-29T22:22:20.327Z,100.00
2022-10-29T22:24:46.745Z,100.00
2022-10-29T22:27:13.235Z,100.00
2022-10-29T22:29:42.287Z,100.00
2022-10-29T22:32:18.148Z,100.00
2022-10-29T22:35:11.342Z,100.00
2022-10-29T22:37:47.266Z,100.00
2022-10-29T22:40:17.277Z,100.00
2022-10-29T22:42:44.123Z,100.00
2022-10-29T22:45:11.017Z,100.00
2022-10-29T22:47:40.478Z,100.00
2022-10-29T22:50:07.458Z,100.00
2022-10-29T22:52:33.992Z,100.00
2022-10-29T22:55:00.537Z,100.00
2022-10-29T22:57:27.019Z,100.00
2022-10-29T22:59:53.504Z,100.00
2022-10-29T23:02:31.875Z,100.00
2022-10-29T23:05:18.317Z,100.00
2022-10-29T23:07:53.638Z,100.00
2022-10-29T23:10:22.371Z,100.00
2022-10-29T23:12:49.209Z,100.00
2022-10-29T23:15:15.828Z,100.00
2022-10-29T23:17:42.630Z,100.00
2022-10-29T23:20:09.465Z,100.00
2022-10-29T23:22:36.211Z,100.00
2022-10-29T23:25:02.761Z,100.00
2022-10-29T23:27:29.387Z,100.00
2022-10-29T23:29:56.208Z,100.00
2022-10-29T23:32:22.670Z,100.00
2022-10-29T23:34:50.158Z,100.00
2022-10-29T23:37:27.513Z,100.00
2022-10-29T23:39:54.194Z,100.00
2022-10-29T23:42:23.434Z,100.00
2022-10-29T23:44:50.133Z,100.00
2022-10-29T23:47:17.011Z,100.00
2022-10-29T23:49:43.896Z,100.00
2022-10-29T23:52:10.726Z,100.00
2022-10-29T23:54:37.211Z,100.00
2022-10-29T23:57:03.870Z,100.00
2022-10-29T23:59:30.525Z,100.00
